sensor_id;sensor_type;location;lat;lon;timestamp;P1;P2;P0
68713;PMS7003;55690;51.566;19.198;2023-08-30T00:03:57;9;5;5
68713;PMS7003;55690;51.566;19.198;2023-08-30T00:08:03;6;6;4
68713;PMS7003;55690;51.566;19.198;2023-08-30T00:12:09;7;6;4
68713;PMS7003;55690;51.566;19.198;2023-08-30T00:16:16;9;6;4
68713;PMS7003;55690;51.566;19.198;2023-08-30T00:20:22;6;5;4
68713;PMS7003;55690;51.566;19.198;2023-08-30T00:24:28;5;5;5
68713;PMS7003;55690;51.566;19.198;2023-08-30T00:28:34;6;6;3
68713;PMS7003;55690;51.566;19.198;2023-08-30T00:32:40;7;7;3
68713;PMS7003;55690;51.566;19.198;2023-08-30T00:36:46;10;8;5
68713;PMS7003;55690;51.566;19.198;2023-08-30T00:40:53;5;5;3
68713;PMS7003;55690;51.566;19.198;2023-08-30T00:44:59;5;5;3
68713;PMS7003;55690;51.566;19.198;2023-08-30T00:49:05;4;4;3
68713;PMS7003;55690;51.566;19.198;2023-08-30T00:53:11;4;4;3
68713;PMS7003;55690;51.566;19.198;2023-08-30T00:57:17;6;6;6
68713;PMS7003;55690;51.566;19.198;2023-08-30T01:01:23;4;4;2
68713;PMS7003;55690;51.566;19.198;2023-08-30T01:05:29;7;5;4
68713;PMS7003;55690;51.566;19.198;2023-08-30T01:09:36;11;7;5
68713;PMS7003;55690;51.566;19.198;2023-08-30T01:13:44;9;9;7
68713;PMS7003;55690;51.566;19.198;2023-08-30T01:17:51;7;5;3
68713;PMS7003;55690;51.566;19.198;2023-08-30T01:22:38;12;11;9
68713;PMS7003;55690;51.566;19.198;2023-08-30T01:26:13;4;4;2
68713;PMS7003;55690;51.566;19.198;2023-08-30T01:30:25;6;6;3
68713;PMS7003;55690;51.566;19.198;2023-08-30T01:34:28;8;8;7
68713;PMS7003;55690;51.566;19.198;2023-08-30T01:38:31;13;7;5
68713;PMS7003;55690;51.566;19.198;2023-08-30T01:42:34;13;8;5
68713;PMS7003;55690;51.566;19.198;2023-08-30T01:46:37;19;8;5
68713;PMS7003;55690;51.566;19.198;2023-08-30T01:50:40;9;8;4
68713;PMS7003;55690;51.566;19.198;2023-08-30T01:54:43;12;9;6
68713;PMS7003;55690;51.566;19.198;2023-08-30T01:58:50;9;6;4
68713;PMS7003;55690;51.566;19.198;2023-08-30T02:02:56;16;16;6
68713;PMS7003;55690;51.566;19.198;2023-08-30T02:07:03;11;8;4
68713;PMS7003;55690;51.566;19.198;2023-08-30T02:11:11;16;10;7
68713;PMS7003;55690;51.566;19.198;2023-08-30T02:15:16;19;12;7
68713;PMS7003;55690;51.566;19.198;2023-08-30T02:19:20;11;8;5
68713;PMS7003;55690;51.566;19.198;2023-08-30T02:23:26;10;8;5
68713;PMS7003;55690;51.566;19.198;2023-08-30T02:27:33;6;6;3
68713;PMS7003;55690;51.566;19.198;2023-08-30T02:31:39;18;12;7
68713;PMS7003;55690;51.566;19.198;2023-08-30T02:35:45;16;6;4
68713;PMS7003;55690;51.566;19.198;2023-08-30T02:39:51;11;11;8
68713;PMS7003;55690;51.566;19.198;2023-08-30T02:43:57;22;12;7
68713;PMS7003;55690;51.566;19.198;2023-08-30T02:48:04;13;10;7
68713;PMS7003;55690;51.566;19.198;2023-08-30T02:52:10;33;19;12
68713;PMS7003;55690;51.566;19.198;2023-08-30T02:56:16;12;11;8
68713;PMS7003;55690;51.566;19.198;2023-08-30T03:00:22;11;11;6
68713;PMS7003;55690;51.566;19.198;2023-08-30T03:04:28;8;3;0
68713;PMS7003;55690;51.566;19.198;2023-08-30T03:08:34;19;12;6
68713;PMS7003;55690;51.566;19.198;2023-08-30T03:12:40;20;12;7
68713;PMS7003;55690;51.566;19.198;2023-08-30T03:16:47;20;16;9
68713;PMS7003;55690;51.566;19.198;2023-08-30T03:21:02;22;12;8
68713;PMS7003;55690;51.566;19.198;2023-08-30T03:25:05;21;11;6
68713;PMS7003;55690;51.566;19.198;2023-08-30T03:29:09;27;16;8
68713;PMS7003;55690;51.566;19.198;2023-08-30T03:33:11;17;16;10
68713;PMS7003;55690;51.566;19.198;2023-08-30T03:37:17;21;16;11
68713;PMS7003;55690;51.566;19.198;2023-08-30T03:41:24;12;11;7
68713;PMS7003;55690;51.566;19.198;2023-08-30T03:45:33;26;18;11
68713;PMS7003;55690;51.566;19.198;2023-08-30T03:49:36;14;11;8
68713;PMS7003;55690;51.566;19.198;2023-08-30T03:53:42;29;21;7
68713;PMS7003;55690;51.566;19.198;2023-08-30T03:57:48;23;13;9
68713;PMS7003;55690;51.566;19.198;2023-08-30T04:01:54;20;18;10
68713;PMS7003;55690;51.566;19.198;2023-08-30T04:06:01;17;10;7
68713;PMS7003;55690;51.566;19.198;2023-08-30T04:10:07;18;12;6
68713;PMS7003;55690;51.566;19.198;2023-08-30T04:14:13;16;11;7
68713;PMS7003;55690;51.566;19.198;2023-08-30T04:18:19;18;14;9
68713;PMS7003;55690;51.566;19.198;2023-08-30T04:22:25;27;17;11
68713;PMS7003;55690;51.566;19.198;2023-08-30T04:26:31;17;11;7
68713;PMS7003;55690;51.566;19.198;2023-08-30T04:30:38;14;14;7
68713;PMS7003;55690;51.566;19.198;2023-08-30T04:34:44;8;8;6
68713;PMS7003;55690;51.566;19.198;2023-08-30T04:38:50;18;16;8
68713;PMS7003;55690;51.566;19.198;2023-08-30T04:42:57;17;13;7
68713;PMS7003;55690;51.566;19.198;2023-08-30T04:47:02;16;12;8
68713;PMS7003;55690;51.566;19.198;2023-08-30T04:51:08;26;15;7
68713;PMS7003;55690;51.566;19.198;2023-08-30T04:55:15;8;8;6
68713;PMS7003;55690;51.566;19.198;2023-08-30T04:59:21;16;11;7
68713;PMS7003;55690;51.566;19.198;2023-08-30T05:03:27;21;14;6
68713;PMS7003;55690;51.566;19.198;2023-08-30T05:07:33;19;10;8
68713;PMS7003;55690;51.566;19.198;2023-08-30T05:11:39;15;14;9
68713;PMS7003;55690;51.566;19.198;2023-08-30T05:15:45;16;14;10
68713;PMS7003;55690;51.566;19.198;2023-08-30T05:19:52;14;10;5
68713;PMS7003;55690;51.566;19.198;2023-08-30T05:23:58;14;11;5
68713;PMS7003;55690;51.566;19.198;2023-08-30T05:28:04;24;17;10
68713;PMS7003;55690;51.566;19.198;2023-08-30T05:32:10;11;6;4
68713;PMS7003;55690;51.566;19.198;2023-08-30T05:36:16;12;10;4
68713;PMS7003;55690;51.566;19.198;2023-08-30T05:40:22;13;10;5
68713;PMS7003;55690;51.566;19.198;2023-08-30T05:44:29;20;15;7
68713;PMS7003;55690;51.566;19.198;2023-08-30T05:48:35;16;10;7
68713;PMS7003;55690;51.566;19.198;2023-08-30T05:52:41;18;8;6
68713;PMS7003;55690;51.566;19.198;2023-08-30T05:56:47;11;8;5
68713;PMS7003;55690;51.566;19.198;2023-08-30T06:00:53;15;7;5
68713;PMS7003;55690;51.566;19.198;2023-08-30T06:04:59;17;9;5
68713;PMS7003;55690;51.566;19.198;2023-08-30T06:09:05;12;12;8
68713;PMS7003;55690;51.566;19.198;2023-08-30T06:13:12;12;7;5
68713;PMS7003;55690;51.566;19.198;2023-08-30T06:17:18;11;11;5
68713;PMS7003;55690;51.566;19.198;2023-08-30T06:21:24;21;19;9
68713;PMS7003;55690;51.566;19.198;2023-08-30T06:25:30;11;10;5
68713;PMS7003;55690;51.566;19.198;2023-08-30T06:29:36;7;7;4
68713;PMS7003;55690;51.566;19.198;2023-08-30T06:33:42;10;9;5
68713;PMS7003;55690;51.566;19.198;2023-08-30T06:37:49;8;7;4
68713;PMS7003;55690;51.566;19.198;2023-08-30T06:41:55;14;7;4
68713;PMS7003;55690;51.566;19.198;2023-08-30T06:46:01;26;9;5
68713;PMS7003;55690;51.566;19.198;2023-08-30T06:50:07;12;8;6
68713;PMS7003;55690;51.566;19.198;2023-08-30T06:54:13;8;8;3
68713;PMS7003;55690;51.566;19.198;2023-08-30T06:58:20;14;7;5
68713;PMS7003;55690;51.566;19.198;2023-08-30T07:02:27;16;9;4
68713;PMS7003;55690;51.566;19.198;2023-08-30T07:06:32;20;8;5
68713;PMS7003;55690;51.566;19.198;2023-08-30T07:10:38;10;8;5
68713;PMS7003;55690;51.566;19.198;2023-08-30T07:14:44;10;7;4
68713;PMS7003;55690;51.566;19.198;2023-08-30T07:18:50;6;4;3
68713;PMS7003;55690;51.566;19.198;2023-08-30T07:22:56;17;14;8
68713;PMS7003;55690;51.566;19.198;2023-08-30T07:27:03;13;10;6
68713;PMS7003;55690;51.566;19.198;2023-08-30T07:31:09;10;8;6
68713;PMS7003;55690;51.566;19.198;2023-08-30T07:35:16;6;6;4
68713;PMS7003;55690;51.566;19.198;2023-08-30T07:39:21;12;9;3
68713;PMS7003;55690;51.566;19.198;2023-08-30T07:43:27;15;10;6
68713;PMS7003;55690;51.566;19.198;2023-08-30T07:47:33;11;6;3
68713;PMS7003;55690;51.566;19.198;2023-08-30T07:51:40;14;6;4
68713;PMS7003;55690;51.566;19.198;2023-08-30T07:55:49;7;6;3
68713;PMS7003;55690;51.566;19.198;2023-08-30T07:59:52;14;7;6
68713;PMS7003;55690;51.566;19.198;2023-08-30T08:03:58;11;10;5
68713;PMS7003;55690;51.566;19.198;2023-08-30T08:08:04;10;10;3
68713;PMS7003;55690;51.566;19.198;2023-08-30T08:12:10;11;9;5
68713;PMS7003;55690;51.566;19.198;2023-08-30T08:16:17;11;8;5
68713;PMS7003;55690;51.566;19.198;2023-08-30T08:20:23;13;9;5
68713;PMS7003;55690;51.566;19.198;2023-08-30T08:24:29;11;9;6
68713;PMS7003;55690;51.566;19.198;2023-08-30T08:28:35;8;8;4
68713;PMS7003;55690;51.566;19.198;2023-08-30T08:32:41;8;3;1
68713;PMS7003;55690;51.566;19.198;2023-08-30T08:36:47;7;6;3
68713;PMS7003;55690;51.566;19.198;2023-08-30T08:41:00;7;7;4
68713;PMS7003;55690;51.566;19.198;2023-08-30T08:45:05;8;6;3
68713;PMS7003;55690;51.566;19.198;2023-08-30T08:53:18;15;7;4
68713;PMS7003;55690;51.566;19.198;2023-08-30T08:57:20;5;5;3
68713;PMS7003;55690;51.566;19.198;2023-08-30T09:01:25;12;3;2
68713;PMS7003;55690;51.566;19.198;2023-08-30T09:05:31;7;3;2
68713;PMS7003;55690;51.566;19.198;2023-08-30T09:09:37;5;5;3
68713;PMS7003;55690;51.566;19.198;2023-08-30T09:13:43;4;4;3
68713;PMS7003;55690;51.566;19.198;2023-08-30T09:17:49;7;6;4
68713;PMS7003;55690;51.566;19.198;2023-08-30T09:21:57;7;4;3
68713;PMS7003;55690;51.566;19.198;2023-08-30T09:26:02;7;4;1
68713;PMS7003;55690;51.566;19.198;2023-08-30T09:30:08;17;7;3
68713;PMS7003;55690;51.566;19.198;2023-08-30T09:34:14;4;4;2
68713;PMS7003;55690;51.566;19.198;2023-08-30T09:38:20;6;5;3
68713;PMS7003;55690;51.566;19.198;2023-08-30T09:42:26;8;6;3
68713;PMS7003;55690;51.566;19.198;2023-08-30T09:46:32;6;6;4
68713;PMS7003;55690;51.566;19.198;2023-08-30T09:50:38;17;7;4
68713;PMS7003;55690;51.566;19.198;2023-08-30T09:54:44;7;6;3
68713;PMS7003;55690;51.566;19.198;2023-08-30T09:58:51;6;6;2
68713;PMS7003;55690;51.566;19.198;2023-08-30T10:35:25;32;16;9
68713;PMS7003;55690;51.566;19.198;2023-08-30T10:39:35;7;7;5
68713;PMS7003;55690;51.566;19.198;2023-08-30T11:33:49;7;5;3
68713;PMS7003;55690;51.566;19.198;2023-08-30T11:37:53;17;8;7
68713;PMS7003;55690;51.566;19.198;2023-08-30T11:41:56;7;7;4
68713;PMS7003;55690;51.566;19.198;2023-08-30T11:46:00;10;5;3
68713;PMS7003;55690;51.566;19.198;2023-08-30T11:50:07;8;8;4
68713;PMS7003;55690;51.566;19.198;2023-08-30T11:54:12;8;8;5
68713;PMS7003;55690;51.566;19.198;2023-08-30T11:58:19;7;6;5
68713;PMS7003;55690;51.566;19.198;2023-08-30T12:02:25;3;3;2
68713;PMS7003;55690;51.566;19.198;2023-08-30T12:06:31;10;10;7
68713;PMS7003;55690;51.566;19.198;2023-08-30T12:10:37;9;9;7
68713;PMS7003;55690;51.566;19.198;2023-08-30T12:14:43;12;4;2
68713;PMS7003;55690;51.566;19.198;2023-08-30T12:18:49;14;9;4
68713;PMS7003;55690;51.566;19.198;2023-08-30T12:22:56;5;5;3
68713;PMS7003;55690;51.566;19.198;2023-08-30T12:27:03;4;4;3
68713;PMS7003;55690;51.566;19.198;2023-08-30T12:31:08;11;4;3
68713;PMS7003;55690;51.566;19.198;2023-08-30T12:35:14;6;6;3
68713;PMS7003;55690;51.566;19.198;2023-08-30T12:39:21;3;2;1
68713;PMS7003;55690;51.566;19.198;2023-08-30T12:43:26;9;6;4
68713;PMS7003;55690;51.566;19.198;2023-08-30T12:47:33;8;6;4
68713;PMS7003;55690;51.566;19.198;2023-08-30T12:51:39;10;6;5
68713;PMS7003;55690;51.566;19.198;2023-08-30T12:55:45;7;5;3
68713;PMS7003;55690;51.566;19.198;2023-08-30T12:59:51;16;7;6
68713;PMS7003;55690;51.566;19.198;2023-08-30T13:03:57;10;9;8
68713;PMS7003;55690;51.566;19.198;2023-08-30T13:08:03;10;4;3
68713;PMS7003;55690;51.566;19.198;2023-08-30T13:12:10;7;7;5
68713;PMS7003;55690;51.566;19.198;2023-08-30T13:16:16;9;9;5
68713;PMS7003;55690;51.566;19.198;2023-08-30T13:20:22;9;5;4
68713;PMS7003;55690;51.566;19.198;2023-08-30T13:24:28;11;5;4
68713;PMS7003;55690;51.566;19.198;2023-08-30T13:28:34;7;6;3
68713;PMS7003;55690;51.566;19.198;2023-08-30T13:32:40;12;5;3
68713;PMS7003;55690;51.566;19.198;2023-08-30T13:36:47;8;6;4
68713;PMS7003;55690;51.566;19.198;2023-08-30T13:40:57;6;5;4
68713;PMS7003;55690;51.566;19.198;2023-08-30T13:45:00;7;7;4
68713;PMS7003;55690;51.566;19.198;2023-08-30T13:49:05;7;7;4
68713;PMS7003;55690;51.566;19.198;2023-08-30T13:53:11;6;6;4
68713;PMS7003;55690;51.566;19.198;2023-08-30T13:57:17;10;7;6
68713;PMS7003;55690;51.566;19.198;2023-08-30T14:01:24;12;4;3
68713;PMS7003;55690;51.566;19.198;2023-08-30T14:05:30;6;6;3
68713;PMS7003;55690;51.566;19.198;2023-08-30T14:09:36;8;5;4
68713;PMS7003;55690;51.566;19.198;2023-08-30T14:13:42;7;7;6
68713;PMS7003;55690;51.566;19.198;2023-08-30T14:17:48;2;2;1
68713;PMS7003;55690;51.566;19.198;2023-08-30T14:21:55;3;2;2
68713;PMS7003;55690;51.566;19.198;2023-08-30T14:26:04;7;6;5
68713;PMS7003;55690;51.566;19.198;2023-08-30T14:30:10;2;2;1
68713;PMS7003;55690;51.566;19.198;2023-08-30T14:34:13;6;3;2
68713;PMS7003;55690;51.566;19.198;2023-08-30T14:38:19;5;5;4
68713;PMS7003;55690;51.566;19.198;2023-08-30T14:42:25;6;6;5
68713;PMS7003;55690;51.566;19.198;2023-08-30T14:46:31;3;3;2
68713;PMS7003;55690;51.566;19.198;2023-08-30T14:50:37;4;4;3
68713;PMS7003;55690;51.566;19.198;2023-08-30T14:54:44;3;3;3
68713;PMS7003;55690;51.566;19.198;2023-08-30T14:58:50;4;3;3
68713;PMS7003;55690;51.566;19.198;2023-08-30T15:02:56;7;5;4
68713;PMS7003;55690;51.566;19.198;2023-08-30T15:07:03;5;5;3
68713;PMS7003;55690;51.566;19.198;2023-08-30T15:11:08;5;5;3
68713;PMS7003;55690;51.566;19.198;2023-08-30T15:15:14;8;2;1
68713;PMS7003;55690;51.566;19.198;2023-08-30T15:19:21;5;5;4
68713;PMS7003;55690;51.566;19.198;2023-08-30T15:23:27;5;3;2
68713;PMS7003;55690;51.566;19.198;2023-08-30T15:27:33;2;2;1
68713;PMS7003;55690;51.566;19.198;2023-08-30T15:31:39;3;3;2
68713;PMS7003;55690;51.566;19.198;2023-08-30T15:35:45;4;4;3
68713;PMS7003;55690;51.566;19.198;2023-08-30T15:39:57;6;5;3
68713;PMS7003;55690;51.566;19.198;2023-08-30T15:44:10;6;4;3
68713;PMS7003;55690;51.566;19.198;2023-08-30T15:48:12;2;1;1
68713;PMS7003;55690;51.566;19.198;2023-08-30T15:52:13;4;3;3
68713;PMS7003;55690;51.566;19.198;2023-08-30T15:56:16;2;2;2
68713;PMS7003;55690;51.566;19.198;2023-08-30T16:00:22;9;5;4
68713;PMS7003;55690;51.566;19.198;2023-08-30T16:04:28;3;3;1
68713;PMS7003;55690;51.566;19.198;2023-08-30T16:08:35;7;3;3
68713;PMS7003;55690;51.566;19.198;2023-08-30T16:12:41;6;3;3
68713;PMS7003;55690;51.566;19.198;2023-08-30T16:16:47;5;5;4
68713;PMS7003;55690;51.566;19.198;2023-08-30T16:20:53;4;3;2
68713;PMS7003;55690;51.566;19.198;2023-08-30T16:24:59;6;5;4
68713;PMS7003;55690;51.566;19.198;2023-08-30T16:29:05;3;3;2
68713;PMS7003;55690;51.566;19.198;2023-08-30T16:33:11;2;2;2
68713;PMS7003;55690;51.566;19.198;2023-08-30T16:37:19;1;1;1
68713;PMS7003;55690;51.566;19.198;2023-08-30T16:41:24;5;2;1
68713;PMS7003;55690;51.566;19.198;2023-08-30T16:45:31;2;2;0
68713;PMS7003;55690;51.566;19.198;2023-08-30T16:49:36;2;2;1
68713;PMS7003;55690;51.566;19.198;2023-08-30T16:53:42;6;1;1
68713;PMS7003;55690;51.566;19.198;2023-08-30T16:57:48;2;2;2
68713;PMS7003;55690;51.566;19.198;2023-08-30T17:01:55;1;1;1
68713;PMS7003;55690;51.566;19.198;2023-08-30T17:06:01;1;1;1
68713;PMS7003;55690;51.566;19.198;2023-08-30T17:10:07;1;1;0
68713;PMS7003;55690;51.566;19.198;2023-08-30T17:14:14;1;1;1
68713;PMS7003;55690;51.566;19.198;2023-08-30T17:18:19;1;1;0
68713;PMS7003;55690;51.566;19.198;2023-08-30T17:22:25;1;0;0
68713;PMS7003;55690;51.566;19.198;2023-08-30T17:26:32;0;0;0
68713;PMS7003;55690;51.566;19.198;2023-08-30T17:30:38;1;1;1
68713;PMS7003;55690;51.566;19.198;2023-08-30T17:34:44;0;0;0
68713;PMS7003;55690;51.566;19.198;2023-08-30T17:38:51;3;1;1
68713;PMS7003;55690;51.566;19.198;2023-08-30T17:42:56;2;1;1
68713;PMS7003;55690;51.566;19.198;2023-08-30T17:47:03;3;3;1
68713;PMS7003;55690;51.566;19.198;2023-08-30T17:51:09;9;2;1
68713;PMS7003;55690;51.566;19.198;2023-08-30T17:55:16;2;2;2
68713;PMS7003;55690;51.566;19.198;2023-08-30T17:59:21;2;2;1
68713;PMS7003;55690;51.566;19.198;2023-08-30T18:03:27;4;3;3
68713;PMS7003;55690;51.566;19.198;2023-08-30T18:07:33;3;3;3
68713;PMS7003;55690;51.566;19.198;2023-08-30T18:11:39;8;4;3
68713;PMS7003;55690;51.566;19.198;2023-08-30T18:15:45;3;3;2
68713;PMS7003;55690;51.566;19.198;2023-08-30T18:19:52;2;2;1
68713;PMS7003;55690;51.566;19.198;2023-08-30T18:28:13;3;3;3
68713;PMS7003;55690;51.566;19.198;2023-08-30T18:32:15;10;4;3
68713;PMS7003;55690;51.566;19.198;2023-08-30T18:36:17;4;2;2
68713;PMS7003;55690;51.566;19.198;2023-08-30T18:40:23;4;2;2
68713;PMS7003;55690;51.566;19.198;2023-08-30T18:44:29;4;4;3
68713;PMS7003;55690;51.566;19.198;2023-08-30T18:48:35;1;1;1
68713;PMS7003;55690;51.566;19.198;2023-08-30T18:52:41;1;1;0
68713;PMS7003;55690;51.566;19.198;2023-08-30T18:56:47;3;3;1
68713;PMS7003;55690;51.566;19.198;2023-08-30T19:00:53;1;1;1
68713;PMS7003;55690;51.566;19.198;2023-08-30T19:04:59;2;2;2
68713;PMS7003;55690;51.566;19.198;2023-08-30T19:09:06;3;3;2
68713;PMS7003;55690;51.566;19.198;2023-08-30T19:13:12;2;0;0
68713;PMS7003;55690;51.566;19.198;2023-08-30T19:17:18;2;2;1
68713;PMS7003;55690;51.566;19.198;2023-08-30T19:21:24;3;3;2
68713;PMS7003;55690;51.566;19.198;2023-08-30T19:25:31;3;3;2
68713;PMS7003;55690;51.566;19.198;2023-08-30T19:29:36;1;1;1
68713;PMS7003;55690;51.566;19.198;2023-08-30T19:33:43;3;3;2
68713;PMS7003;55690;51.566;19.198;2023-08-30T19:37:49;3;3;1
68713;PMS7003;55690;51.566;19.198;2023-08-30T19:41:57;4;4;3
68713;PMS7003;55690;51.566;19.198;2023-08-30T19:46:02;5;4;2
68713;PMS7003;55690;51.566;19.198;2023-08-30T19:50:07;1;1;0
68713;PMS7003;55690;51.566;19.198;2023-08-30T19:54:13;1;1;1
68713;PMS7003;55690;51.566;19.198;2023-08-30T19:58:20;4;4;3
68713;PMS7003;55690;51.566;19.198;2023-08-30T20:02:26;4;4;3
68713;PMS7003;55690;51.566;19.198;2023-08-30T20:06:32;2;2;2
68713;PMS7003;55690;51.566;19.198;2023-08-30T20:10:38;9;2;2
68713;PMS7003;55690;51.566;19.198;2023-08-30T20:14:44;3;3;3
68713;PMS7003;55690;51.566;19.198;2023-08-30T20:18:50;2;2;2
68713;PMS7003;55690;51.566;19.198;2023-08-30T20:22:56;3;2;2
68713;PMS7003;55690;51.566;19.198;2023-08-30T20:27:03;1;1;1
68713;PMS7003;55690;51.566;19.198;2023-08-30T20:31:09;5;3;3
68713;PMS7003;55690;51.566;19.198;2023-08-30T20:35:15;2;2;2
68713;PMS7003;55690;51.566;19.198;2023-08-30T20:39:22;2;2;1
68713;PMS7003;55690;51.566;19.198;2023-08-30T20:43:28;4;4;3
68713;PMS7003;55690;51.566;19.198;2023-08-30T20:47:34;4;4;3
68713;PMS7003;55690;51.566;19.198;2023-08-30T20:51:40;4;3;3
68713;PMS7003;55690;51.566;19.198;2023-08-30T20:55:46;6;3;2
68713;PMS7003;55690;51.566;19.198;2023-08-30T20:59:52;3;3;1
68713;PMS7003;55690;51.566;19.198;2023-08-30T21:03:59;4;3;2
68713;PMS7003;55690;51.566;19.198;2023-08-30T21:08:05;2;2;1
68713;PMS7003;55690;51.566;19.198;2023-08-30T21:12:11;2;2;2
68713;PMS7003;55690;51.566;19.198;2023-08-30T21:16:17;3;3;2
68713;PMS7003;55690;51.566;19.198;2023-08-30T21:20:23;5;4;4
68713;PMS7003;55690;51.566;19.198;2023-08-30T21:24:29;10;3;1
68713;PMS7003;55690;51.566;19.198;2023-08-30T21:28:35;8;4;3
68713;PMS7003;55690;51.566;19.198;2023-08-30T21:32:42;3;2;1
68713;PMS7003;55690;51.566;19.198;2023-08-30T21:36:49;4;4;3
68713;PMS7003;55690;51.566;19.198;2023-08-30T21:40:54;3;3;2
68713;PMS7003;55690;51.566;19.198;2023-08-30T21:45:01;1;1;1
68713;PMS7003;55690;51.566;19.198;2023-08-30T21:49:06;6;3;2
68713;PMS7003;55690;51.566;19.198;2023-08-30T21:53:12;2;2;2
68713;PMS7003;55690;51.566;19.198;2023-08-30T21:57:19;9;5;3
68713;PMS7003;55690;51.566;19.198;2023-08-30T22:01:25;2;2;2
68713;PMS7003;55690;51.566;19.198;2023-08-30T22:05:32;2;2;2
68713;PMS7003;55690;51.566;19.198;2023-08-30T22:09:37;3;3;1
68713;PMS7003;55690;51.566;19.198;2023-08-30T22:13:43;5;5;4
68713;PMS7003;55690;51.566;19.198;2023-08-30T22:17:50;4;4;2
68713;PMS7003;55690;51.566;19.198;2023-08-30T22:21:56;3;3;3
68713;PMS7003;55690;51.566;19.198;2023-08-30T22:26:02;2;2;2
68713;PMS7003;55690;51.566;19.198;2023-08-30T22:30:08;3;2;1
68713;PMS7003;55690;51.566;19.198;2023-08-30T22:34:14;4;4;3
68713;PMS7003;55690;51.566;19.198;2023-08-30T22:38:20;7;2;2
68713;PMS7003;55690;51.566;19.198;2023-08-30T22:42:26;3;3;1
68713;PMS7003;55690;51.566;19.198;2023-08-30T22:46:33;5;3;2
68713;PMS7003;55690;51.566;19.198;2023-08-30T22:50:39;2;1;1
68713;PMS7003;55690;51.566;19.198;2023-08-30T22:54:45;2;2;2
68713;PMS7003;55690;51.566;19.198;2023-08-30T22:58:51;1;1;1
68713;PMS7003;55690;51.566;19.198;2023-08-30T23:02:57;6;1;1
68713;PMS7003;55690;51.566;19.198;2023-08-30T23:07:03;3;3;2
68713;PMS7003;55690;51.566;19.198;2023-08-30T23:11:09;0;0;0
68713;PMS7003;55690;51.566;19.198;2023-08-30T23:15:16;5;5;2
68713;PMS7003;55690;51.566;19.198;2023-08-30T23:19:22;2;2;2
68713;PMS7003;55690;51.566;19.198;2023-08-30T23:23:28;2;2;1
68713;PMS7003;55690;51.566;19.198;2023-08-30T23:27:35;3;2;1
68713;PMS7003;55690;51.566;19.198;2023-08-30T23:31:40;1;1;1
68713;PMS7003;55690;51.566;19.198;2023-08-30T23:35:46;1;1;1
68713;PMS7003;55690;51.566;19.198;2023-08-30T23:39:53;2;2;2
68713;PMS7003;55690;51.566;19.198;2023-08-30T23:43:59;9;2;1
68713;PMS7003;55690;51.566;19.198;2023-08-30T23:48:05;5;4;3
68713;PMS7003;55690;51.566;19.198;2023-08-30T23:52:11;4;4;4
68713;PMS7003;55690;51.566;19.198;2023-08-30T23:56:17;1;1;1
